createdAt,value
2019-02-17T19:11:54.582Z,1.80
2019-02-17T19:14:01.801Z,1.00
2019-02-17T19:18:24.419Z,1.00
2019-02-17T19:20:31.682Z,1.20
2019-02-17T19:22:39.572Z,0.90
2019-02-17T19:25:07.823Z,1.20
2019-02-17T19:27:37.251Z,1.00
2019-02-17T19:30:18.189Z,0.90
2019-02-17T19:32:25.410Z,0.90
2019-02-17T19:34:34.379Z,1.07
2019-02-17T19:36:52.313Z,0.83
2019-02-17T19:39:22.689Z,0.80
2019-02-17T19:42:05.049Z,0.97
2019-02-17T19:44:11.833Z,0.80
2019-02-17T19:46:20.378Z,0.80
2019-02-17T19:48:32.793Z,0.73
2019-02-17T19:53:44.375Z,0.73
2019-02-17T19:55:28.151Z,0.83
2019-02-17T19:57:35.339Z,0.93
2019-02-17T19:59:42.815Z,0.63
2019-02-17T20:01:50.361Z,0.60
2019-02-17T20:04:41.441Z,0.60
2019-02-17T20:06:59.988Z,0.60
2019-02-17T20:09:21.009Z,0.60
2019-02-17T20:14:48.062Z,0.60
2019-02-17T20:16:54.721Z,0.63
2019-02-17T20:19:13.513Z,0.60
2019-02-17T20:22:18.038Z,0.60
2019-02-17T20:24:25.510Z,0.70
2019-02-17T20:28:57.096Z,0.60
2019-02-17T20:31:29.563Z,0.40
2019-02-17T20:33:36.999Z,0.63
2019-02-17T20:36:10.633Z,0.63
2019-02-17T20:38:25.319Z,0.60
2019-02-17T20:41:04.463Z,0.50
2019-02-17T20:45:46.609Z,0.53
2019-02-17T20:48:04.567Z,0.40
2019-02-17T20:50:28.253Z,0.50
2019-02-17T20:52:41.716Z,0.60
2019-02-17T20:55:02.619Z,0.40
2019-02-17T20:57:23.075Z,0.60
2019-02-17T21:02:04.506Z,0.43
2019-02-17T21:04:11.755Z,0.60
2019-02-17T21:06:52.104Z,0.40
2019-02-17T21:09:09.363Z,0.50
2019-02-17T21:11:40.876Z,0.50
2019-02-17T21:13:54.229Z,0.60
2019-02-17T21:16:03.153Z,0.50
2019-02-17T21:18:23.069Z,1.00
2019-02-17T21:20:39.245Z,0.60
2019-02-17T21:23:19.546Z,0.50
2019-02-17T21:25:16.540Z,0.50
2019-02-17T21:30:09.470Z,0.50
2019-02-17T21:32:40.591Z,0.50
2019-02-17T21:35:21.867Z,0.50
2019-02-17T21:38:03.979Z,0.57
2019-02-17T21:40:27.401Z,0.50
2019-02-17T21:42:40.369Z,0.70
2019-02-17T21:44:48.807Z,0.60
2019-02-17T21:47:09.293Z,0.50
2019-02-17T21:49:22.126Z,0.60
2019-02-17T21:51:37.756Z,0.60
2019-02-17T21:53:48.776Z,0.50
2019-02-17T21:56:22.899Z,0.50
2019-02-17T21:59:23.355Z,0.83
2019-02-17T22:01:42.824Z,0.53
2019-02-17T22:03:52.706Z,0.50
2019-02-17T22:06:19.685Z,0.47
2019-02-17T22:11:43.010Z,0.47
2019-02-17T22:13:51.940Z,0.50
2019-02-17T22:19:18.403Z,0.60
2019-02-17T22:21:35.571Z,0.60
2019-02-17T22:23:48.039Z,0.50
2019-02-17T22:26:03.364Z,0.60
2019-02-17T22:31:04.083Z,0.50
2019-02-17T22:33:37.888Z,0.80
2019-02-17T22:35:53.720Z,0.50
2019-02-17T22:38:38.105Z,0.50
2019-02-17T22:41:25.186Z,0.50
2019-02-17T22:43:51.632Z,0.67
2019-02-17T22:46:26.626Z,0.40
2019-02-17T22:49:04.254Z,0.50
2019-02-17T22:51:34.154Z,0.57
2019-02-17T22:53:46.789Z,0.63
2019-02-17T22:59:59.388Z,0.50
2019-02-17T23:04:43.550Z,0.60
2019-02-17T23:06:54.499Z,0.90
2019-02-17T23:09:05.472Z,0.30
2019-02-17T23:11:13.282Z,0.40
2019-02-17T23:13:21.103Z,0.50
2019-02-17T23:15:28.385Z,0.50
2019-02-17T23:17:36.246Z,0.50
2019-02-17T23:19:44.434Z,0.50
2019-02-17T23:21:51.792Z,0.30
2019-02-17T23:24:00.160Z,0.40
2019-02-17T23:26:37.611Z,0.40
2019-02-17T23:29:04.600Z,0.40
2019-02-17T23:33:50.007Z,0.40
2019-02-17T23:37:03.532Z,0.60
2019-02-17T23:39:14.483Z,0.47
2019-02-17T23:44:04.735Z,0.40
2019-02-17T23:46:27.889Z,0.40
2019-02-17T23:48:50.051Z,0.80
2019-02-17T23:51:06.591Z,0.60
2019-02-17T23:53:38.318Z,0.63
2019-02-17T23:55:49.809Z,0.50
2019-02-17T23:59:21.653Z,0.50
